Hanover, Virginia
Current Conditions -  °F | °C
As of 3:54 AM on Sunday 23 Nov 2014 (Local Time) from KOFP Reporting Station
Clear Clear  
Wind Chill: 29°   Ceiling: Unl
Heat Index: 35°   Visibility: 10mi
Dew Point: 18°   Wind: 7mph
Humidity: 50%   Direction: 180°S
Pressure: 30.27"   Gusts: NA
Location:  37.77°N, 77.37°W
Report Text: KOFP 230854Z AUTO 18006KT 10SM CLR 02/M08 A3027 RMK AO2 SLP250 T00171078 58008
Loading
Personal Weather Stations






























Interactive Weather Map New forecast layout! Learn more

10-Day Weather Forecast

Advertisements
Track Severe Weather on mobile